createdAt,value
2019-05-20T00:00:16.277Z,20.70
2019-05-20T00:02:44.688Z,15.40
2019-05-20T00:05:13.442Z,18.63
2019-05-20T00:07:41.853Z,21.57
2019-05-20T00:10:10.601Z,18.57
2019-05-20T00:12:39.373Z,19.13
2019-05-20T00:15:08.042Z,18.37
2019-05-20T00:17:36.463Z,17.30
2019-05-20T00:20:07.066Z,19.00
2019-05-20T00:22:35.751Z,19.40
2019-05-20T00:25:06.502Z,20.10
2019-05-20T00:27:35.174Z,18.60
2019-05-20T00:30:04.622Z,18.20
2019-05-20T00:32:41.063Z,19.83
2019-05-20T00:35:04.326Z,20.73
2019-05-20T00:37:33.004Z,20.37
2019-05-20T00:40:01.410Z,21.27
2019-05-20T00:42:30.082Z,20.87
2019-05-20T00:44:58.769Z,20.83
2019-05-20T00:47:27.460Z,21.73
2019-05-20T00:49:55.866Z,21.63
2019-05-20T00:52:24.629Z,20.47
2019-05-20T00:54:53.044Z,20.03
2019-05-20T00:57:21.462Z,20.77
2019-05-20T00:59:50.201Z,21.37
2019-05-20T01:02:18.628Z,19.93
2019-05-20T01:04:47.047Z,20.63
2019-05-20T01:07:15.628Z,21.97
2019-05-20T01:09:44.334Z,20.87
2019-05-20T01:12:12.757Z,25.07
2019-05-20T01:14:41.173Z,22.80
2019-05-20T01:17:09.601Z,22.73
2019-05-20T01:19:38.082Z,21.90
2019-05-20T01:22:06.754Z,28.10
2019-05-20T01:24:35.158Z,26.40
2019-05-20T01:27:03.829Z,24.60
2019-05-20T01:29:32.514Z,24.93
2019-05-20T01:32:01.202Z,25.47
2019-05-20T01:34:29.997Z,26.57
2019-05-20T01:36:58.689Z,27.17
2019-05-20T01:39:27.138Z,33.13
2019-05-20T01:41:55.605Z,23.07
2019-05-20T01:44:24.344Z,26.63
2019-05-20T01:46:52.751Z,31.60
2019-05-20T01:49:21.438Z,26.30
2019-05-20T01:51:50.210Z,27.83
2019-05-20T01:54:18.629Z,26.77
2019-05-20T01:56:47.045Z,28.00
2019-05-20T01:59:15.457Z,28.10
2019-05-20T02:01:43.883Z,26.60
2019-05-20T02:04:12.376Z,26.10
2019-05-20T02:06:40.810Z,26.30
2019-05-20T02:09:09.298Z,25.97
2019-05-20T02:11:37.762Z,25.40
2019-05-20T02:14:08.206Z,28.23
2019-05-20T02:16:36.908Z,25.63
2019-05-20T02:19:05.488Z,27.43
2019-05-20T02:21:34.379Z,27.30
2019-05-20T02:24:02.797Z,27.23
2019-05-20T02:26:31.558Z,26.30
2019-05-20T02:29:00.241Z,26.80
2019-05-20T02:31:28.651Z,26.70
2019-05-20T02:33:57.066Z,32.87
2019-05-20T02:36:25.486Z,31.23
2019-05-20T02:38:54.186Z,33.83
2019-05-20T02:41:22.602Z,35.80
2019-05-20T02:43:51.009Z,41.10
2019-05-20T02:46:19.417Z,36.90
2019-05-20T02:48:47.846Z,38.40
2019-05-20T02:51:17.886Z,39.67
2019-05-20T02:53:46.298Z,38.00
2019-05-20T02:56:14.714Z,35.53
2019-05-20T02:58:43.129Z,33.33
2019-05-20T03:01:11.532Z,42.40
2019-05-20T03:03:40.030Z,42.20
2019-05-20T03:06:08.756Z,44.87
2019-05-20T03:08:37.431Z,45.43
2019-05-20T03:11:06.130Z,46.80
2019-05-20T03:13:34.542Z,50.17
2019-05-20T03:16:02.956Z,45.97
2019-05-20T03:18:31.366Z,49.23
2019-05-20T03:20:59.773Z,52.13
2019-05-20T03:23:28.549Z,46.47
2019-05-20T03:25:56.949Z,43.80
2019-05-20T03:28:25.372Z,44.70
2019-05-20T03:30:54.220Z,50.83
2019-05-20T03:33:22.794Z,47.80
2019-05-20T03:35:51.206Z,52.73
2019-05-20T03:38:19.622Z,52.70
2019-05-20T03:40:48.097Z,52.53
2019-05-20T03:43:16.523Z,53.47
2019-05-20T03:45:44.940Z,60.07
2019-05-20T03:48:13.359Z,53.37
2019-05-20T03:50:41.950Z,55.00
2019-05-20T03:53:10.369Z,60.03
2019-05-20T03:55:38.777Z,52.20
2019-05-20T03:58:07.200Z,51.60
2019-05-20T04:00:38.705Z,57.30
2019-05-20T04:03:07.203Z,54.30
2019-05-20T04:05:35.701Z,56.20
2019-05-20T04:08:04.118Z,44.20
2019-05-20T04:10:32.549Z,54.10
2019-05-20T04:13:01.208Z,53.43
2019-05-20T04:15:29.630Z,55.30
2019-05-20T04:17:58.030Z,55.47
2019-05-20T04:20:26.452Z,57.63
2019-05-20T04:22:55.015Z,54.60
2019-05-20T04:25:23.734Z,50.37
2019-05-20T04:27:52.155Z,59.07
2019-05-20T04:30:20.806Z,58.53
2019-05-20T04:32:49.219Z,60.23
2019-05-20T04:35:22.531Z,53.47
2019-05-20T04:37:47.762Z,52.33
2019-05-20T04:40:16.769Z,56.97
2019-05-20T04:42:45.175Z,48.47
2019-05-20T04:45:14.106Z,57.43
2019-05-20T04:47:42.509Z,59.20
2019-05-20T04:50:11.366Z,52.93
2019-05-20T04:52:39.772Z,58.23
2019-05-20T04:55:08.262Z,52.13
2019-05-20T04:57:36.669Z,56.93
2019-05-20T05:00:07.607Z,51.27
2019-05-20T05:02:36.331Z,57.70
2019-05-20T05:05:07.119Z,59.70
2019-05-20T05:07:35.970Z,59.50
2019-05-20T05:10:07.135Z,57.73
2019-05-20T05:12:35.683Z,49.73
2019-05-20T05:15:08.053Z,61.17
2019-05-20T05:17:37.070Z,60.43
2019-05-20T05:20:17.491Z,58.83
2019-05-20T05:22:39.060Z,58.63
2019-05-20T05:25:07.621Z,56.60
2019-05-20T05:27:36.318Z,59.60
2019-05-20T05:30:06.446Z,61.90
2019-05-20T05:32:41.698Z,58.87
2019-05-20T05:35:14.905Z,57.53
2019-05-20T05:37:43.816Z,46.80
2019-05-20T05:40:13.627Z,48.00
2019-05-20T05:42:42.080Z,41.70
2019-05-20T05:45:10.841Z,60.80
2019-05-20T05:47:39.595Z,63.13
2019-05-20T05:50:08.652Z,49.47
2019-05-20T05:52:37.056Z,60.57
2019-05-20T05:55:05.913Z,59.20
2019-05-20T05:57:34.317Z,56.77
2019-05-20T06:00:03.772Z,52.57
2019-05-20T06:02:32.503Z,57.27
2019-05-20T06:05:00.918Z,53.53
2019-05-20T06:07:29.326Z,52.00
2019-05-20T06:09:57.743Z,54.83
2019-05-20T06:12:26.153Z,55.87
2019-05-20T06:14:54.837Z,59.20
2019-05-20T06:17:23.238Z,55.30
2019-05-20T06:19:51.661Z,58.77
2019-05-20T06:22:20.490Z,58.20
2019-05-20T06:24:49.129Z,61.33
2019-05-20T06:27:17.874Z,62.53
2019-05-20T06:29:46.284Z,58.97
2019-05-20T06:32:15.375Z,61.87
2019-05-20T06:34:44.140Z,60.37
2019-05-20T06:37:17.016Z,62.20
2019-05-20T06:39:45.428Z,63.57
2019-05-20T06:42:14.097Z,58.13
2019-05-20T06:44:52.300Z,55.87
2019-05-20T06:47:12.637Z,57.17
2019-05-20T06:49:41.123Z,56.50
2019-05-20T06:52:09.537Z,45.43
2019-05-20T06:54:38.425Z,53.93
2019-05-20T06:57:06.940Z,49.80
2019-05-20T06:59:35.467Z,45.40
2019-05-20T07:02:03.938Z,51.10
2019-05-20T07:04:32.718Z,49.83
2019-05-20T07:07:01.512Z,46.03
2019-05-20T07:09:29.935Z,44.80
2019-05-20T07:11:58.674Z,33.33
2019-05-20T07:14:27.081Z,46.70
2019-05-20T07:16:55.742Z,40.13
2019-05-20T07:19:24.142Z,41.77
2019-05-20T07:21:52.555Z,39.03
2019-05-20T07:24:20.968Z,42.13
2019-05-20T07:26:49.389Z,49.13
2019-05-20T07:29:17.805Z,43.83
2019-05-20T07:31:46.230Z,46.17
2019-05-20T07:34:14.665Z,48.00
2019-05-20T07:36:43.129Z,48.07
2019-05-20T07:39:11.538Z,51.90
2019-05-20T07:41:41.634Z,53.93
2019-05-20T07:44:10.153Z,51.83
2019-05-20T07:46:38.645Z,50.40
2019-05-20T07:49:07.582Z,52.80
2019-05-20T07:51:36.882Z,50.53
2019-05-20T07:54:05.605Z,48.00
2019-05-20T07:56:37.195Z,41.23
2019-05-20T07:59:07.964Z,55.33
2019-05-20T08:01:36.458Z,54.57
2019-05-20T08:04:04.929Z,52.87
2019-05-20T08:06:33.360Z,51.40
2019-05-20T08:09:02.143Z,41.93
2019-05-20T08:11:30.549Z,47.90
2019-05-20T08:13:58.973Z,46.77
2019-05-20T08:16:27.390Z,42.57
2019-05-20T08:18:55.799Z,46.07
2019-05-20T08:21:24.501Z,52.10
2019-05-20T08:23:53.262Z,43.20
2019-05-20T08:26:21.704Z,42.10
2019-05-20T08:28:50.089Z,28.50
2019-05-20T08:31:18.505Z,40.80
2019-05-20T08:33:46.918Z,42.10
2019-05-20T08:36:15.655Z,44.33
2019-05-20T08:38:44.362Z,40.93
2019-05-20T08:41:12.779Z,37.80
2019-05-20T08:43:41.213Z,38.93
2019-05-20T08:46:09.685Z,38.67
2019-05-20T08:48:38.098Z,41.43
2019-05-20T08:51:06.762Z,42.90
2019-05-20T08:53:35.170Z,42.80
2019-05-20T08:56:03.902Z,45.80
2019-05-20T08:58:32.361Z,42.13
2019-05-20T09:01:00.785Z,42.77
2019-05-20T09:03:30.550Z,37.00
2019-05-20T09:05:59.253Z,40.23
2019-05-20T09:08:28.027Z,35.67
2019-05-20T09:10:56.435Z,42.20
2019-05-20T09:13:24.843Z,46.33
2019-05-20T09:15:53.271Z,42.07
2019-05-20T09:18:21.681Z,37.10
2019-05-20T09:20:50.522Z,33.07
2019-05-20T09:23:40.093Z,34.20
2019-05-20T09:26:08.520Z,33.47
2019-05-20T09:28:37.301Z,34.83
2019-05-20T09:31:06.141Z,36.17
2019-05-20T09:33:35.867Z,45.67
2019-05-20T09:36:04.758Z,34.73
2019-05-20T09:38:36.665Z,37.63
2019-05-20T09:41:03.333Z,35.83
2019-05-20T09:43:31.744Z,36.17
2019-05-20T09:46:07.532Z,32.77
2019-05-20T09:48:30.569Z,34.77
2019-05-20T09:50:59.273Z,33.20
2019-05-20T09:53:27.746Z,37.77
2019-05-20T09:55:56.239Z,41.00
2019-05-20T09:58:24.663Z,37.33
2019-05-20T10:00:53.060Z,34.23
2019-05-20T10:03:21.478Z,29.33
2019-05-20T10:05:49.893Z,33.13
2019-05-20T10:08:35.845Z,31.90
2019-05-20T10:10:48.465Z,34.93
2019-05-20T10:13:17.279Z,38.60
2019-05-20T10:15:45.701Z,31.10
2019-05-20T10:18:14.435Z,38.80
2019-05-20T10:20:42.854Z,29.30
2019-05-20T10:23:15.457Z,29.77
2019-05-20T10:25:41.414Z,28.87
2019-05-20T10:28:09.832Z,34.37
2019-05-20T10:30:38.270Z,43.03
2019-05-20T10:33:09.354Z,34.60
2019-05-20T10:35:36.900Z,35.20
2019-05-20T10:38:05.422Z,32.47
2019-05-20T10:40:34.065Z,33.93
2019-05-20T10:43:02.508Z,37.20
2019-05-20T10:45:31.250Z,34.43
2019-05-20T10:47:59.686Z,33.40
2019-05-20T10:50:28.095Z,25.30
2019-05-20T10:52:56.536Z,33.97
2019-05-20T10:55:25.067Z,37.03
2019-05-20T10:57:53.498Z,30.80
2019-05-20T11:00:22.499Z,41.53
2019-05-20T11:02:51.250Z,36.60
2019-05-20T11:05:19.931Z,36.90
2019-05-20T11:07:48.451Z,25.80
2019-05-20T11:10:17.352Z,32.47
2019-05-20T11:12:46.114Z,35.87
2019-05-20T11:15:15.070Z,30.83
2019-05-20T11:17:43.477Z,35.03
2019-05-20T11:20:12.594Z,36.13
2019-05-20T11:22:40.970Z,37.93
2019-05-20T11:25:10.684Z,37.80
2019-05-20T11:27:39.189Z,35.87
2019-05-20T11:30:08.369Z,34.10
2019-05-20T11:32:37.170Z,38.33
2019-05-20T11:35:09.088Z,28.53
2019-05-20T11:37:37.817Z,39.00
2019-05-20T11:40:09.388Z,37.90
2019-05-20T11:42:38.105Z,39.87
2019-05-20T11:45:09.980Z,34.33
2019-05-20T11:47:38.722Z,32.83
2019-05-20T11:50:08.741Z,37.00
2019-05-20T11:52:37.422Z,32.10
2019-05-20T11:55:07.061Z,36.90
2019-05-20T11:57:35.543Z,39.60
2019-05-20T12:00:07.390Z,38.20
2019-05-20T12:02:35.801Z,36.93
2019-05-20T12:05:31.575Z,42.40
2019-05-20T12:07:58.688Z,35.23
2019-05-20T12:10:27.094Z,36.17
2019-05-20T12:12:55.538Z,30.90
2019-05-20T12:15:23.960Z,31.10
2019-05-20T12:17:52.386Z,40.60
2019-05-20T12:20:20.970Z,39.90
2019-05-20T12:22:49.398Z,35.90
2019-05-20T12:25:18.117Z,36.80
2019-05-20T12:27:46.530Z,36.23
2019-05-20T12:30:15.393Z,30.27
2019-05-20T12:32:44.186Z,25.57
2019-05-20T12:35:12.981Z,43.17
2019-05-20T12:37:45.350Z,34.10
2019-05-20T12:40:12.441Z,39.13
2019-05-20T12:42:40.859Z,41.57
2019-05-20T12:45:10.702Z,32.77
2019-05-20T12:47:39.122Z,41.77
2019-05-20T12:50:08.607Z,31.97
2019-05-20T12:52:37.426Z,40.77
2019-05-20T12:55:09.640Z,34.07
2019-05-20T12:57:36.834Z,33.90
2019-05-20T13:00:13.081Z,43.50
2019-05-20T13:02:42.937Z,35.87
2019-05-20T13:05:11.899Z,41.33
2019-05-20T13:07:40.377Z,41.00
2019-05-20T13:10:26.927Z,48.07
2019-05-20T13:12:40.060Z,37.80
2019-05-20T13:15:10.196Z,49.20
2019-05-20T13:17:43.839Z,39.60
2019-05-20T13:20:09.606Z,55.50
2019-05-20T13:22:38.031Z,74.47
2019-05-20T13:25:07.410Z,47.03
2019-05-20T13:27:35.834Z,50.60
2019-05-20T13:30:06.487Z,46.47
2019-05-20T13:32:34.954Z,45.50
2019-05-20T13:35:04.692Z,49.87
2019-05-20T13:37:33.139Z,45.53
2019-05-20T13:40:03.144Z,42.37
2019-05-20T13:42:31.695Z,45.87
2019-05-20T13:45:00.111Z,42.73
2019-05-20T13:47:28.602Z,42.83
2019-05-20T13:49:57.001Z,45.60
2019-05-20T13:52:25.425Z,45.33
2019-05-20T13:54:54.267Z,42.37
2019-05-20T13:57:22.670Z,48.30
2019-05-20T13:59:51.089Z,50.63
2019-05-20T14:02:19.504Z,49.73
2019-05-20T14:04:47.977Z,48.77
2019-05-20T14:07:16.411Z,45.00
2019-05-20T14:09:45.177Z,42.40
2019-05-20T14:12:13.588Z,46.10
2019-05-20T14:14:42.013Z,44.07
2019-05-20T14:17:10.479Z,46.03
2019-05-20T14:19:38.893Z,42.37
2019-05-20T14:22:07.304Z,45.07
2019-05-20T14:24:35.727Z,48.20
2019-05-20T14:27:04.290Z,41.97
2019-05-20T14:29:33.261Z,38.90
2019-05-20T14:32:01.982Z,44.80
2019-05-20T14:34:30.445Z,41.83
2019-05-20T14:36:58.873Z,41.83
2019-05-20T14:39:27.295Z,40.17
2019-05-20T14:41:55.989Z,42.90
2019-05-20T14:44:24.421Z,37.37
2019-05-20T14:46:52.899Z,34.17
2019-05-20T14:49:21.321Z,37.60
2019-05-20T14:51:49.725Z,35.70
2019-05-20T14:54:18.155Z,39.40
2019-05-20T14:56:46.633Z,42.53
2019-05-20T14:59:15.082Z,36.07
2019-05-20T15:01:43.773Z,38.10
2019-05-20T15:04:12.212Z,40.52
2019-05-20T15:06:40.942Z,35.63
2019-05-20T15:09:09.368Z,37.87
2019-05-20T15:11:38.863Z,35.10
2019-05-20T15:14:07.892Z,40.40
2019-05-20T15:16:36.620Z,35.33
2019-05-20T15:19:05.049Z,39.50
2019-05-20T15:21:33.441Z,38.20
2019-05-20T15:24:02.123Z,32.33
2019-05-20T15:26:50.026Z,37.33
2019-05-20T15:29:27.540Z,33.90
2019-05-20T15:31:49.057Z,30.17
2019-05-20T15:34:17.487Z,38.03
2019-05-20T15:36:45.948Z,37.47
2019-05-20T15:39:14.406Z,37.90
2019-05-20T15:41:42.829Z,36.30
2019-05-20T15:44:11.433Z,37.97
2019-05-20T15:46:40.334Z,31.40
2019-05-20T15:49:09.017Z,35.00
2019-05-20T15:51:37.716Z,42.50
2019-05-20T15:54:06.135Z,36.37
2019-05-20T15:56:34.887Z,38.10
2019-05-20T15:59:03.349Z,36.90
2019-05-20T16:01:32.166Z,37.60
2019-05-20T16:04:00.588Z,39.90
2019-05-20T16:06:28.998Z,38.40
2019-05-20T16:08:57.824Z,33.97
2019-05-20T16:11:26.277Z,37.53
2019-05-20T16:13:54.741Z,39.43
2019-05-20T16:16:23.488Z,35.07
2019-05-20T16:18:51.912Z,39.00
2019-05-20T16:21:20.322Z,40.53
2019-05-20T16:23:48.758Z,38.30
2019-05-20T16:26:17.219Z,39.03
2019-05-20T16:28:46.122Z,34.10
2019-05-20T16:31:14.606Z,41.70
2019-05-20T16:33:43.281Z,35.97
2019-05-20T16:36:11.713Z,47.67
2019-05-20T16:38:40.178Z,41.40
2019-05-20T16:41:08.942Z,43.10
2019-05-20T16:43:37.358Z,39.10
2019-05-20T16:46:06.537Z,34.33
2019-05-20T16:48:35.055Z,42.30
2019-05-20T16:51:03.480Z,43.07
2019-05-20T16:53:31.960Z,37.47
2019-05-20T16:56:00.675Z,31.47
2019-05-20T16:58:29.110Z,39.63
2019-05-20T17:00:57.841Z,46.17
2019-05-20T17:03:26.534Z,39.80
2019-05-20T17:05:55.222Z,43.07
2019-05-20T17:08:23.919Z,37.53
2019-05-20T17:10:52.328Z,44.30
2019-05-20T17:13:20.741Z,43.70
2019-05-20T17:15:49.149Z,42.27
2019-05-20T17:18:17.566Z,35.73
2019-05-20T17:20:46.572Z,30.87
2019-05-20T17:23:15.271Z,45.40
2019-05-20T17:25:43.762Z,35.53
2019-05-20T17:28:12.170Z,41.03
2019-05-20T17:30:45.331Z,43.20
2019-05-20T17:33:11.188Z,36.63
2019-05-20T17:35:39.785Z,40.90
2019-05-20T17:38:08.594Z,39.10
2019-05-20T17:40:37.545Z,37.50
2019-05-20T17:43:06.149Z,38.13
2019-05-20T17:45:34.888Z,32.90
2019-05-20T17:48:03.551Z,34.63
2019-05-20T17:50:32.045Z,32.17
2019-05-20T17:53:00.470Z,32.90
2019-05-20T17:55:29.820Z,35.47
2019-05-20T17:57:58.728Z,37.40
2019-05-20T18:00:27.153Z,40.53
2019-05-20T18:02:55.559Z,38.93
2019-05-20T18:05:23.980Z,41.53
2019-05-20T18:07:52.390Z,23.80
2019-05-20T18:10:22.460Z,43.07
2019-05-20T18:12:50.864Z,33.80
2019-05-20T18:15:19.553Z,42.17
2019-05-20T18:17:47.967Z,45.57
2019-05-20T18:20:17.022Z,44.13
2019-05-20T18:22:45.720Z,46.90
2019-05-20T18:25:14.813Z,48.20
2019-05-20T18:27:43.241Z,39.30
2019-05-20T18:30:14.212Z,32.63
2019-05-20T18:32:42.936Z,43.63
2019-05-20T18:35:12.191Z,37.60
2019-05-20T18:37:40.625Z,46.20
2019-05-20T18:40:14.824Z,38.67
2019-05-20T18:42:40.050Z,46.10
2019-05-20T18:45:09.621Z,44.33
2019-05-20T18:47:38.029Z,43.13
2019-05-20T18:50:07.980Z,41.77
2019-05-20T18:52:36.746Z,34.97
2019-05-20T18:55:06.508Z,45.60
2019-05-20T18:57:35.255Z,44.77
2019-05-20T19:00:08.606Z,42.63
2019-05-20T19:02:37.338Z,49.53
2019-05-20T19:05:07.490Z,42.13
2019-05-20T19:07:35.897Z,46.07
2019-05-20T19:10:05.454Z,45.93
2019-05-20T19:12:33.863Z,46.30
2019-05-20T19:15:02.358Z,45.27
2019-05-20T19:17:32.542Z,45.43
2019-05-20T19:20:01.190Z,45.57
2019-05-20T19:22:29.593Z,43.47
2019-05-20T19:24:58.016Z,38.07
2019-05-20T19:27:26.720Z,30.50
2019-05-20T19:29:55.140Z,32.47
2019-05-20T19:32:24.166Z,34.23
2019-05-20T19:34:52.658Z,43.50
2019-05-20T19:37:21.138Z,44.10
2019-05-20T19:39:49.821Z,38.80
2019-05-20T19:42:18.273Z,42.53
2019-05-20T19:44:46.731Z,26.73
2019-05-20T19:47:15.137Z,49.63
2019-05-20T19:49:43.565Z,42.30
2019-05-20T19:52:12.246Z,46.47
2019-05-20T19:54:40.943Z,51.70
2019-05-20T19:57:09.345Z,45.33
2019-05-20T19:59:37.812Z,45.77
2019-05-20T20:02:16.791Z,44.87
2019-05-20T20:04:36.738Z,45.83
2019-05-20T20:07:05.156Z,44.57
2019-05-20T20:09:33.632Z,36.37
2019-05-20T20:12:02.065Z,41.27
2019-05-20T20:14:30.488Z,41.27
2019-05-20T20:16:58.896Z,36.00
2019-05-20T20:19:27.342Z,42.87
2019-05-20T20:21:56.113Z,41.63
2019-05-20T20:24:26.228Z,45.37
2019-05-20T20:26:54.656Z,32.33
2019-05-20T20:29:23.137Z,44.37
2019-05-20T20:31:51.546Z,27.27
2019-05-20T20:34:20.382Z,39.27
2019-05-20T20:36:48.772Z,28.60
2019-05-20T20:39:17.197Z,38.13
2019-05-20T20:41:45.937Z,34.13
2019-05-20T20:44:14.343Z,33.93
2019-05-20T20:46:43.011Z,31.40
2019-05-20T20:49:14.624Z,33.23
2019-05-20T20:51:41.844Z,35.37
2019-05-20T20:54:10.247Z,36.73
2019-05-20T20:56:38.669Z,41.27
2019-05-20T20:59:07.373Z,38.57
2019-05-20T21:01:36.181Z,34.87
2019-05-20T21:04:04.585Z,32.77
2019-05-20T21:06:33.002Z,32.60
2019-05-20T21:09:01.405Z,34.97
2019-05-20T21:11:29.849Z,34.60
2019-05-20T21:13:58.252Z,27.27
2019-05-20T21:16:26.677Z,45.27
2019-05-20T21:18:55.087Z,41.03
2019-05-20T21:21:23.867Z,44.30
2019-05-20T21:23:52.269Z,36.77
2019-05-20T21:26:21.045Z,43.30
2019-05-20T21:28:49.501Z,36.63
2019-05-20T21:31:17.942Z,52.03
2019-05-20T21:33:46.351Z,46.50
2019-05-20T21:36:15.066Z,43.03
2019-05-20T21:38:43.475Z,45.27
2019-05-20T21:41:12.203Z,47.57
2019-05-20T21:43:40.614Z,45.07
2019-05-20T21:46:09.021Z,42.23
2019-05-20T21:48:37.702Z,47.83
2019-05-20T21:51:06.383Z,52.83
2019-05-20T21:53:35.150Z,42.80
2019-05-20T21:56:03.970Z,49.63
2019-05-20T21:58:32.377Z,50.47
2019-05-20T22:01:01.442Z,50.97
2019-05-20T22:03:29.840Z,48.17
2019-05-20T22:05:58.258Z,46.90
2019-05-20T22:08:26.669Z,42.17
2019-05-20T22:10:55.100Z,44.83
2019-05-20T22:13:23.814Z,46.40
2019-05-20T22:15:52.259Z,51.50
2019-05-20T22:18:21.042Z,48.07
2019-05-20T22:20:49.448Z,41.47
2019-05-20T22:23:22.194Z,51.40
2019-05-20T22:25:52.184Z,49.70
2019-05-20T22:28:20.789Z,43.80
2019-05-20T22:30:49.209Z,48.53
2019-05-20T22:33:17.621Z,33.83
2019-05-20T22:35:46.028Z,40.93
2019-05-20T22:38:14.445Z,42.90
2019-05-20T22:40:43.221Z,48.47
2019-05-20T22:43:11.931Z,36.60
2019-05-20T22:45:40.618Z,51.27
2019-05-20T22:48:09.306Z,51.13
2019-05-20T22:50:37.710Z,42.57
2019-05-20T22:53:06.121Z,50.93
2019-05-20T22:55:34.538Z,41.77
2019-05-20T22:58:03.290Z,42.40
2019-05-20T23:00:32.061Z,44.87
2019-05-20T23:03:00.571Z,41.43
2019-05-20T23:05:28.977Z,43.73
2019-05-20T23:07:57.402Z,43.60
2019-05-20T23:10:25.813Z,43.20
2019-05-20T23:12:54.552Z,47.13
2019-05-20T23:15:23.288Z,46.00
2019-05-20T23:17:52.037Z,43.97
2019-05-20T23:20:20.441Z,43.27
2019-05-20T23:22:49.251Z,44.17
2019-05-20T23:25:17.918Z,41.60
2019-05-20T23:27:46.384Z,50.07
2019-05-20T23:30:16.841Z,38.67
2019-05-20T23:32:45.269Z,42.63
2019-05-20T23:35:13.756Z,43.53
2019-05-20T23:37:42.174Z,45.73
2019-05-20T23:40:11.889Z,37.97
2019-05-20T23:42:40.305Z,41.10
2019-05-20T23:45:09.550Z,41.20
2019-05-20T23:47:37.973Z,39.87
2019-05-20T23:50:06.845Z,39.13
2019-05-20T23:52:35.274Z,40.10
2019-05-20T23:55:07.851Z,35.97
2019-05-20T23:57:36.261Z,37.83
